Weather at Ballinvally Farm Airstrip

Public forecast

Using degrees Celsius for public forecast. Weather courtesy of forecast.io.

Closest aviation weather report (METAR) to Ballinvally Farm Airstrip

Report is more than 6 hours old.

Closest report is Waterford Airport, 36.4 nm (67.4 km) SW. Retrieved 2021/01/27 20:30 UTC (10 hours ago):

EIWF 272030Z 20009KT 0300 FG VV000 09/09 Q1004 R21/1/////

Closest aviation forecast (TAF) to Ballinvally Farm Airstrip

Closest forecast is Dublin Airport, 51.1 nm (94.6 km) N. Retrieved 2021/01/28 06:09 UTC (34 minutes ago):

TAF EIDW 280500Z 2806/2906 25012KT 9999 FEW010 SCT020 TEMPO 2806/2810 26015G25KT BECMG 2814/2816 20010KT PROB30 TEMPO 2816/2820 3000 RADZ BKN014